Holcut, Mississippi
Current Conditions -  °F | °C
As of 5:55 PM on Saturday 22 Nov 2014 (Local Time) from KCRX Reporting Station
Few Clouds Few Clouds  
Wind Chill: 57°   Ceiling: Unl
Heat Index: 57°   Visibility: 10mi
Dew Point: 37°   Wind: 5mph
Humidity: 48%   Direction: 130°SE
Pressure: 30.08"   Gusts: NA
Location:  34.8106°N, 88.1999°W
Report Text: KCRX 222355Z AUTO 13004KT 10SM FEW110 14/03 A3008 RMK AO2
Loading
Personal Weather Stations






























Interactive Weather Map New forecast layout! Learn more

10-Day Weather Forecast

Advertisements
Track Severe Weather on mobile